Time;durP1;ratioP1;P1;durP2;ratioP2;P2;SDS_P1;SDS_P2;PMS_P1;PMS_P2;Temp;Humidity;BMP_temperature;BMP_pressure;BME280_temperature;BME280_humidity;BME280_pressure;Samples;Min_cycle;Max_cycle;Signal;HPM_P1;HPM_P2
2021/01/13 00:00:08;;;;;;;3.40;1.80;;;-3.10;99.90;;;;;;5057147;28;20193;-66
2021/01/13 00:02:34;;;;;;;1.92;1.30;;;-3.20;99.90;;;;;;5059638;28;20716;-67
2021/01/13 00:05:00;;;;;;;3.67;1.40;;;-3.20;99.90;;;;;;5058154;28;20184;-66
2021/01/13 00:07:25;;;;;;;2.45;1.40;;;-3.20;99.90;;;;;;5075303;28;20264;-65
2021/01/13 00:09:51;;;;;;;2.97;1.80;;;-3.10;99.90;;;;;;5056816;28;20586;-65
2021/01/13 00:12:17;;;;;;;2.88;1.40;;;-3.10;99.90;;;;;;5057969;28;20220;-65
2021/01/13 00:14:43;;;;;;;4.45;1.50;;;-3.10;99.90;;;;;;5058010;28;20235;-67
2021/01/13 00:17:09;;;;;;;2.63;1.48;;;-3.10;99.90;;;;;;5057711;28;20560;-66
2021/01/13 00:19:36;;;;;;;1.92;1.35;;;-3.10;99.90;;;;;;5057235;28;20196;-68
2021/01/13 00:22:03;;;;;;;1.80;1.27;;;-3.10;99.90;;;;;;5054148;28;20209;-65
2021/01/13 00:24:28;;;;;;;3.42;1.48;;;-3.10;99.90;;;;;;5070424;28;20213;-66
2021/01/13 00:26:59;;;;;;;3.65;1.40;;;-3.10;99.90;;;;;;5057948;28;20204;-68
2021/01/13 00:29:24;;;;;;;1.67;1.38;;;-3.00;99.90;;;;;;5072598;28;20677;-66
2021/01/13 00:31:50;;;;;;;3.20;1.58;;;-3.10;99.90;;;;;;5055058;28;20201;-66
2021/01/13 00:34:16;;;;;;;4.57;1.40;;;-3.20;99.90;;;;;;5055306;28;20291;-66
2021/01/13 00:36:42;;;;;;;1.70;1.50;;;-3.20;99.90;;;;;;5056268;28;20657;-68
2021/01/13 00:39:08;;;;;;;1.70;1.60;;;-3.20;99.90;;;;;;5053996;28;20288;-70
2021/01/13 00:41:38;;;;;;;6.82;1.70;;;-3.20;99.90;;;;;;5071900;28;20228;-66
2021/01/13 00:44:05;;;;;;;1.90;1.63;;;-3.20;99.90;;;;;;5054752;28;20921;-66
2021/01/13 00:46:37;;;;;;;4.47;1.50;;;-3.20;99.90;;;;;;5058283;28;21179;-67
2021/01/13 00:49:04;;;;;;;5.80;1.77;;;-3.20;99.90;;;;;;5051836;28;20280;-68
2021/01/13 00:51:38;;;;;;;3.13;1.75;;;-3.20;99.90;;;;;;5054537;28;20697;-69
2021/01/13 00:54:08;;;;;;;6.15;1.60;;;-3.10;99.90;;;;;;5054899;28;20737;-67
2021/01/13 00:56:37;;;;;;;2.05;1.50;;;-3.20;99.90;;;;;;5042629;28;20217;-67
2021/01/13 00:59:02;;;;;;;3.72;1.50;;;-3.20;99.90;;;;;;5050343;28;20306;-67
2021/01/13 01:01:28;;;;;;;3.00;1.73;;;-3.20;99.90;;;;;;5056771;28;20200;-67
2021/01/13 01:03:55;;;;;;;4.50;1.83;;;-3.30;99.90;;;;;;5056747;28;20196;-67
2021/01/13 01:06:22;;;;;;;3.20;1.52;;;-3.30;99.90;;;;;;5065310;28;20247;-65
2021/01/13 01:08:48;;;;;;;3.78;1.77;;;-3.30;99.90;;;;;;5055133;28;20736;-69
2021/01/13 01:11:24;;;;;;;2.13;1.70;;;-3.30;99.90;;;;;;5056065;28;20210;-66
2021/01/13 01:13:50;;;;;;;4.28;1.65;;;-3.30;99.90;;;;;;5057297;28;20220;-66
2021/01/13 01:16:16;;;;;;;3.13;1.63;;;-3.40;99.90;;;;;;5070614;28;20228;-65
2021/01/13 01:18:43;;;;;;;3.75;1.60;;;-3.40;99.90;;;;;;5057748;28;20300;-66
2021/01/13 01:21:09;;;;;;;2.30;1.55;;;-3.40;99.90;;;;;;5060585;28;20211;-65
2021/01/13 01:23:36;;;;;;;2.78;1.60;;;-3.40;99.90;;;;;;5064826;28;20201;-68
2021/01/13 01:26:04;;;;;;;2.13;1.63;;;-3.40;99.90;;;;;;5059503;28;20251;-66
2021/01/13 01:28:30;;;;;;;6.45;1.30;;;-3.30;99.90;;;;;;5059678;28;20195;-68
2021/01/13 01:30:57;;;;;;;3.55;1.67;;;-3.30;99.90;;;;;;5063992;28;20662;-65
2021/01/13 01:33:23;;;;;;;3.47;1.70;;;-3.30;99.90;;;;;;5055599;28;20197;-70
2021/01/13 01:35:49;;;;;;;3.20;1.67;;;-3.30;99.90;;;;;;5045927;28;20204;-70
2021/01/13 01:38:15;;;;;;;1.73;1.50;;;-3.30;99.90;;;;;;5058350;28;20209;-68
2021/01/13 01:40:41;;;;;;;2.55;1.70;;;-3.30;99.90;;;;;;5052247;28;20232;-66
2021/01/13 01:43:07;;;;;;;3.53;1.40;;;-3.30;99.90;;;;;;5057389;28;20280;-66
2021/01/13 01:45:33;;;;;;;5.18;1.98;;;-3.40;99.90;;;;;;5052636;28;20197;-66
2021/01/13 01:47:58;;;;;;;2.53;1.73;;;-3.40;99.90;;;;;;5053996;28;20330;-66
2021/01/13 01:50:34;;;;;;;2.05;1.55;;;-3.40;99.90;;;;;;5060417;28;20193;-67
2021/01/13 01:53:07;;;;;;;2.40;1.55;;;-3.40;99.90;;;;;;5056818;28;20299;-69
2021/01/13 01:55:45;;;;;;;2.45;1.80;;;-3.40;99.90;;;;;;5058565;28;20193;-66
2021/01/13 01:58:11;;;;;;;7.60;1.85;;;-3.40;99.90;;;;;;5070990;28;20201;-66
2021/01/13 02:00:37;;;;;;;3.58;1.73;;;-3.40;99.90;;;;;;5060084;28;20906;-67
2021/01/13 02:03:12;;;;;;;11.68;1.95;;;-3.40;99.90;;;;;;5060089;28;20224;-65
2021/01/13 02:05:42;;;;;;;2.25;1.73;;;-3.50;99.90;;;;;;5073564;28;20246;-66
2021/01/13 02:08:23;;;;;;;6.32;1.80;;;-3.40;99.90;;;;;;5075936;28;20291;-70
2021/01/13 02:10:50;;;;;;;13.68;2.00;;;-3.40;99.90;;;;;;5061645;28;20200;-68
2021/01/13 02:13:19;;;;;;;3.00;1.80;;;-3.50;99.90;;;;;;5062256;28;20587;-69
2021/01/13 02:15:46;;;;;;;2.30;1.63;;;-3.50;99.90;;;;;;5063023;28;20196;-68
2021/01/13 02:18:16;;;;;;;2.58;1.70;;;-3.50;99.90;;;;;;5058220;28;20569;-67
2021/01/13 02:20:45;;;;;;;1.80;1.48;;;-3.50;99.90;;;;;;5058999;28;20201;-67
2021/01/13 02:23:28;;;;;;;2.55;1.67;;;-3.50;99.90;;;;;;5061474;28;20903;-67
2021/01/13 02:26:08;;;;;;;3.75;1.92;;;-3.50;99.90;;;;;;5061513;28;20205;-68
2021/01/13 02:29:04;;;;;;;2.22;1.63;;;-3.50;99.90;;;;;;5060760;28;20227;-67
2021/01/13 02:31:33;;;;;;;2.50;1.60;;;-3.50;99.90;;;;;;5051395;28;20977;-67
2021/01/13 02:34:24;;;;;;;2.80;1.85;;;-3.50;99.90;;;;;;5057687;28;20284;-67
2021/01/13 02:37:14;;;;;;;2.75;2.00;;;-3.50;99.90;;;;;;5039031;28;20290;-66
2021/01/13 02:39:43;;;;;;;3.00;2.00;;;-3.60;99.90;;;;;;5054420;28;20284;-67
2021/01/13 02:42:20;;;;;;;3.58;1.88;;;-3.60;99.90;;;;;;5049232;28;20228;-68
2021/01/13 02:45:02;;;;;;;3.58;2.05;;;-3.60;99.90;;;;;;5058571;28;20603;-69
2021/01/13 02:47:42;;;;;;;3.75;2.40;;;-3.60;99.90;;;;;;5052396;28;20189;-67
2021/01/13 02:50:14;;;;;;;3.15;2.00;;;-3.70;99.90;;;;;;5070967;28;20197;-65
2021/01/13 02:53:13;;;;;;;3.88;2.40;;;-3.60;99.90;;;;;;5051594;28;20204;-65
2021/01/13 02:56:01;;;;;;;4.22;2.40;;;-3.70;99.90;;;;;;5036110;28;20223;-67
2021/01/13 02:58:26;;;;;;;6.05;2.20;;;-3.70;99.90;;;;;;5050631;28;20216;-66
2021/01/13 03:00:53;;;;;;;2.78;1.85;;;-3.70;99.90;;;;;;5053247;28;20195;-67
2021/01/13 03:03:19;;;;;;;5.65;2.63;;;-3.70;99.90;;;;;;5074161;28;20193;-67
2021/01/13 03:05:45;;;;;;;3.35;2.25;;;-3.80;99.90;;;;;;5052169;28;20204;-67
2021/01/13 03:08:15;;;;;;;4.05;2.40;;;-3.80;99.90;;;;;;5056655;28;20204;-67
2021/01/13 03:10:45;;;;;;;3.47;2.10;;;-3.80;99.90;;;;;;5055751;28;20192;-66
2021/01/13 03:13:12;;;;;;;4.65;2.28;;;-3.80;99.90;;;;;;5055938;28;20211;-67
2021/01/13 03:15:39;;;;;;;5.43;2.22;;;-3.80;99.90;;;;;;5056509;28;20193;-68
2021/01/13 03:18:18;;;;;;;3.38;2.17;;;-3.80;99.90;;;;;;5055956;28;20197;-67
2021/01/13 03:21:05;;;;;;;3.88;2.00;;;-3.70;99.90;;;;;;5053397;28;20203;-67
2021/01/13 03:23:49;;;;;;;5.00;1.80;;;-3.70;99.90;;;;;;5051359;28;20185;-67
2021/01/13 03:26:24;;;;;;;5.78;2.13;;;-3.80;99.90;;;;;;5055364;28;20205;-66
2021/01/13 03:28:50;;;;;;;2.42;1.85;;;-3.70;99.90;;;;;;5054973;28;20275;-68
2021/01/13 03:31:24;;;;;;;3.35;2.17;;;-3.70;99.90;;;;;;5052115;28;20262;-68
2021/01/13 03:34:29;;;;;;;4.32;2.17;;;-3.60;99.90;;;;;;5052586;28;20244;-67
2021/01/13 03:37:06;;;;;;;4.20;2.00;;;-3.60;99.90;;;;;;5052860;28;20232;-68
2021/01/13 03:39:35;;;;;;;2.72;1.98;;;-3.60;99.90;;;;;;5054786;28;20204;-67
2021/01/13 03:42:04;;;;;;;7.68;2.13;;;-3.60;99.90;;;;;;5050663;28;20639;-67
2021/01/13 03:44:32;;;;;;;2.65;2.00;;;-3.60;99.90;;;;;;5066405;28;20194;-66
2021/01/13 03:47:20;;;;;;;2.53;1.73;;;-3.70;99.90;;;;;;5054581;28;20309;-68
2021/01/13 03:50:05;;;;;;;4.78;2.10;;;-3.70;99.90;;;;;;5053105;28;20212;-67
2021/01/13 03:52:58;;;;;;;5.90;1.90;;;-3.70;99.90;;;;;;5055104;28;20196;-67
2021/01/13 03:55:25;;;;;;;5.80;2.10;;;-3.70;99.90;;;;;;5050381;28;20209;-68
2021/01/13 03:57:57;;;;;;;5.85;1.77;;;-3.70;99.90;;;;;;5055306;28;20798;-67
2021/01/13 04:00:33;;;;;;;3.65;2.30;;;-3.70;99.90;;;;;;5049964;28;20192;-69
2021/01/13 04:03:22;;;;;;;2.95;1.90;;;-3.60;99.90;;;;;;5049551;28;20295;-67
2021/01/13 04:06:11;;;;;;;6.43;2.03;;;-3.60;99.90;;;;;;5054249;28;20197;-66
2021/01/13 04:08:41;;;;;;;6.20;2.28;;;-3.70;99.90;;;;;;5048172;28;20358;-67
2021/01/13 04:11:19;;;;;;;3.08;1.67;;;-3.70;99.90;;;;;;5055186;28;20220;-67
2021/01/13 04:13:50;;;;;;;4.15;1.63;;;-3.60;99.90;;;;;;5072126;28;20207;-68
2021/01/13 04:16:19;;;;;;;5.85;2.03;;;-3.60;99.90;;;;;;5053147;28;20206;-67
2021/01/13 04:18:47;;;;;;;3.85;2.00;;;-3.60;99.90;;;;;;5054873;28;20288;-68
2021/01/13 04:21:16;;;;;;;7.15;1.90;;;-3.70;99.90;;;;;;5056471;28;20277;-67
2021/01/13 04:23:43;;;;;;;3.92;1.98;;;-3.60;99.90;;;;;;5052781;28;20305;-68
2021/01/13 04:26:10;;;;;;;2.80;1.88;;;-3.70;99.90;;;;;;5052895;28;20228;-71
2021/01/13 04:28:36;;;;;;;7.57;2.20;;;-3.70;99.90;;;;;;5066035;28;20255;-66
2021/01/13 04:31:03;;;;;;;7.35;2.38;;;-3.70;99.90;;;;;;5058259;28;20204;-69
2021/01/13 04:33:29;;;;;;;3.88;2.22;;;-3.70;99.90;;;;;;5067550;28;20202;-68
2021/01/13 04:35:55;;;;;;;3.70;1.90;;;-3.70;99.90;;;;;;5053062;28;20212;-66
2021/01/13 04:38:24;;;;;;;3.45;1.92;;;-3.60;99.90;;;;;;5053276;28;20266;-67
2021/01/13 04:41:03;;;;;;;2.65;1.70;;;-3.60;99.90;;;;;;5054368;28;20227;-65
2021/01/13 04:43:51;;;;;;;6.38;1.67;;;-3.70;99.90;;;;;;5054405;28;20193;-68
2021/01/13 04:46:32;;;;;;;5.28;2.38;;;-3.60;99.90;;;;;;5052194;28;20335;-66
2021/01/13 04:49:06;;;;;;;6.38;2.67;;;-3.70;99.90;;;;;;5049804;28;20707;-67
2021/01/13 04:51:34;;;;;;;2.55;1.85;;;-3.70;99.90;;;;;;5053597;28;20219;-66
2021/01/13 04:54:04;;;;;;;4.57;2.20;;;-3.70;99.90;;;;;;5050149;28;20192;-68
2021/01/13 04:56:58;;;;;;;2.25;1.77;;;-3.80;99.90;;;;;;5051006;28;20912;-66
2021/01/13 04:59:45;;;;;;;1.92;1.50;;;-3.80;99.90;;;;;;5026137;28;20212;-67
2021/01/13 05:02:11;;;;;;;7.07;1.55;;;-3.90;99.90;;;;;;5062393;28;20633;-65
2021/01/13 05:04:43;;;;;;;3.22;1.65;;;-4.10;99.90;;;;;;5053780;28;20213;-66
2021/01/13 05:07:32;;;;;;;4.13;1.83;;;-4.00;99.90;;;;;;5049111;28;20222;-70
2021/01/13 05:10:03;;;;;;;3.78;1.80;;;-4.10;99.90;;;;;;5056984;28;20911;-68
2021/01/13 05:12:51;;;;;;;4.22;1.70;;;-4.10;99.90;;;;;;5055622;28;20196;-66
2021/01/13 05:15:17;;;;;;;6.32;2.00;;;-4.10;99.90;;;;;;5052046;28;20207;-68
2021/01/13 05:18:09;;;;;;;3.63;1.80;;;-4.10;99.90;;;;;;5058574;28;20652;-66
2021/01/13 05:20:37;;;;;;;2.58;1.95;;;-4.10;99.90;;;;;;5051572;28;20297;-68
2021/01/13 05:23:06;;;;;;;3.95;1.52;;;-4.10;99.90;;;;;;5031089;28;20208;-67
2021/01/13 05:25:45;;;;;;;4.40;1.87;;;-4.10;99.90;;;;;;5054022;28;20192;-68
2021/01/13 05:28:21;;;;;;;2.25;1.58;;;-4.20;99.90;;;;;;5070918;28;20189;-66
2021/01/13 05:30:54;;;;;;;2.47;1.73;;;-4.20;99.90;;;;;;5053304;28;20288;-67
2021/01/13 05:33:25;;;;;;;1.80;1.50;;;-4.30;99.90;;;;;;5056759;28;20683;-65
2021/01/13 05:35:56;;;;;;;3.72;1.67;;;-4.30;99.90;;;;;;5056688;28;20220;-66
2021/01/13 05:38:49;;;;;;;2.35;1.65;;;-4.30;99.90;;;;;;5055916;28;20193;-65
2021/01/13 05:41:15;;;;;;;1.67;1.45;;;-4.30;99.90;;;;;;5054439;28;20232;-67
2021/01/13 05:43:48;;;;;;;1.30;1.20;;;-4.30;99.90;;;;;;5052917;28;20654;-68
2021/01/13 05:46:17;;;;;;;1.50;1.40;;;-4.40;99.90;;;;;;5056247;28;20200;-67
2021/01/13 05:48:47;;;;;;;2.60;1.33;;;-4.40;99.90;;;;;;5076889;28;20961;-68
2021/01/13 05:51:13;;;;;;;2.42;1.60;;;-4.40;99.90;;;;;;5058014;28;20284;-67
2021/01/13 05:53:49;;;;;;;2.35;1.40;;;-4.30;99.90;;;;;;5068209;28;20334;-70
2021/01/13 05:56:20;;;;;;;2.42;1.45;;;-4.20;99.90;;;;;;5059271;28;20854;-66
2021/01/13 05:58:46;;;;;;;3.08;1.50;;;-4.20;99.90;;;;;;5063969;28;20238;-66
2021/01/13 06:01:56;;;;;;;2.75;1.70;;;-4.10;99.90;;;;;;5052758;28;20522;-66
2021/01/13 06:04:23;;;;;;;2.05;1.45;;;-4.10;99.90;;;;;;5020238;28;20206;-68
2021/01/13 06:06:58;;;;;;;2.60;1.42;;;-4.00;99.90;;;;;;5015176;28;20199;-66
2021/01/13 06:09:24;;;;;;;2.20;1.40;;;-4.10;99.90;;;;;;5016853;28;20218;-67
2021/01/13 06:11:52;;;;;;;2.45;1.50;;;-4.10;99.90;;;;;;5019669;28;20198;-66
2021/01/13 06:14:24;;;;;;;2.90;1.30;;;-4.10;99.90;;;;;;5012861;28;20616;-68
2021/01/13 06:16:51;;;;;;;2.13;1.48;;;-4.00;99.90;;;;;;5014728;28;20223;-65
2021/01/13 06:19:18;;;;;;;4.70;1.60;;;-4.10;99.90;;;;;;5019405;28;20859;-67
2021/01/13 06:21:46;;;;;;;3.47;1.65;;;-4.00;99.90;;;;;;5003691;28;20608;-66
2021/01/13 06:24:12;;;;;;;6.97;4.50;;;-4.00;99.90;;;;;;5013242;28;20194;-69
2021/01/13 06:26:52;;;;;;;9.18;5.40;;;-4.00;99.90;;;;;;5019207;28;20717;-67
2021/01/13 06:29:37;;;;;;;6.80;4.53;;;-3.90;99.90;;;;;;5021789;28;20292;-66
2021/01/13 06:32:07;;;;;;;15.30;6.82;;;-3.90;99.90;;;;;;5023105;28;20710;-71
2021/01/13 06:34:53;;;;;;;3.00;2.03;;;-3.80;99.90;;;;;;5028948;28;20252;-70
2021/01/13 06:37:33;;;;;;;6.88;1.85;;;-3.80;99.90;;;;;;5058963;28;20954;-65
2021/01/13 06:40:03;;;;;;;13.75;7.07;;;-3.70;99.90;;;;;;5057572;28;20201;-68
2021/01/13 06:42:32;;;;;;;7.28;4.03;;;-3.60;99.90;;;;;;5057924;28;20221;-68
2021/01/13 06:44:57;;;;;;;11.23;5.25;;;-3.70;99.90;;;;;;5061212;28;20193;-69
2021/01/13 06:47:24;;;;;;;5.97;3.45;;;-3.60;99.90;;;;;;5053754;28;20982;-66
2021/01/13 06:49:51;;;;;;;6.30;3.30;;;-3.50;99.90;;;;;;5055319;28;20197;-69
2021/01/13 06:52:30;;;;;;;6.50;2.47;;;-3.50;99.90;;;;;;5049866;28;20197;-67
2021/01/13 06:54:58;;;;;;;2.50;2.03;;;-3.40;99.90;;;;;;5068161;28;20292;-67
2021/01/13 06:57:28;;;;;;;8.05;2.40;;;-3.30;99.90;;;;;;5054031;28;20301;-66
2021/01/13 06:59:55;;;;;;;5.20;2.47;;;-3.30;99.90;;;;;;5054888;28;20205;-70
2021/01/13 07:02:37;;;;;;;16.45;9.40;;;-3.30;99.90;;;;;;5073190;28;20236;-67
2021/01/13 07:05:03;;;;;;;10.25;3.25;;;-3.30;99.90;;;;;;5045942;28;20204;-65
2021/01/13 07:07:30;;;;;;;7.28;3.67;;;-3.30;99.90;;;;;;5058910;28;20196;-68
2021/01/13 07:09:56;;;;;;;18.65;9.70;;;-3.20;99.90;;;;;;5055356;28;20713;-67
2021/01/13 07:12:25;;;;;;;18.98;8.73;;;-3.10;99.90;;;;;;5065343;28;20196;-68
2021/01/13 07:14:53;;;;;;;3.88;3.15;;;-3.10;99.90;;;;;;5074936;28;20201;-69
2021/01/13 07:17:21;;;;;;;7.10;3.55;;;-3.00;99.90;;;;;;5061261;28;20209;-66
2021/01/13 07:19:54;;;;;;;5.63;3.00;;;-3.00;99.90;;;;;;5064804;28;20659;-66
2021/01/13 07:22:21;;;;;;;8.40;4.97;;;-3.00;99.90;;;;;;5050454;28;20217;-66
2021/01/13 07:24:48;;;;;;;11.55;5.68;;;-3.00;99.90;;;;;;5059445;28;20208;-67
2021/01/13 07:27:15;;;;;;;4.38;2.70;;;-2.90;99.90;;;;;;5060242;28;20200;-67
2021/01/13 07:29:42;;;;;;;6.35;3.63;;;-2.90;99.90;;;;;;5058378;28;20200;-68
2021/01/13 07:32:09;;;;;;;7.90;3.60;;;-2.90;99.90;;;;;;5058966;28;20716;-67
2021/01/13 07:34:40;;;;;;;5.53;3.13;;;-2.90;99.90;;;;;;5057978;28;20949;-70
2021/01/13 07:37:08;;;;;;;7.93;4.88;;;-2.90;99.90;;;;;;5055025;28;20204;-68
2021/01/13 07:39:45;;;;;;;13.18;6.55;;;-2.90;99.90;;;;;;5057419;28;20271;-70
2021/01/13 07:42:27;;;;;;;3.58;2.03;;;-2.90;99.90;;;;;;5052389;28;20757;-69
2021/01/13 07:44:59;;;;;;;4.82;2.33;;;-2.80;99.90;;;;;;5061125;28;20661;-66
2021/01/13 07:47:47;;;;;;;18.20;10.13;;;-2.80;99.90;;;;;;5057122;28;20224;-69
2021/01/13 07:50:13;;;;;;;5.10;2.40;;;-2.90;99.90;;;;;;5057165;28;20217;-69
2021/01/13 07:52:44;;;;;;;6.55;3.40;;;-2.80;99.90;;;;;;5057803;28;21090;-69
2021/01/13 07:55:23;;;;;;;5.63;3.20;;;-2.80;99.90;;;;;;5054175;28;20792;-66
2021/01/13 07:57:50;;;;;;;5.75;3.05;;;-2.80;99.90;;;;;;5053480;28;20197;-67
2021/01/13 08:00:31;;;;;;;4.13;2.20;;;-2.70;99.90;;;;;;5056365;28;20215;-68
2021/01/13 08:03:18;;;;;;;7.18;4.68;;;-2.70;99.90;;;;;;5052474;28;20209;-66
2021/01/13 08:06:08;;;;;;;4.10;2.92;;;-2.60;99.90;;;;;;5050709;28;20196;-68
2021/01/13 08:08:53;;;;;;;5.90;1.98;;;-2.70;99.90;;;;;;5056020;28;20211;-67
2021/01/13 08:11:55;;;;;;;11.40;5.57;;;-2.70;99.90;;;;;;5057511;28;20247;-66
2021/01/13 08:14:30;;;;;;;9.75;4.40;;;-2.70;99.90;;;;;;5065684;28;20291;-67
2021/01/13 08:17:03;;;;;;;6.15;3.35;;;-2.60;99.90;;;;;;5051527;28;20571;-69
2021/01/13 08:20:13;;;;;;;4.53;2.13;;;-2.60;99.90;;;;;;5056580;28;20205;-68
2021/01/13 08:22:39;;;;;;;6.53;1.73;;;-2.70;99.90;;;;;;5055045;28;20692;-72
2021/01/13 08:25:18;;;;;;;9.52;3.38;;;-2.60;99.90;;;;;;5060946;28;20220;-66
2021/01/13 08:27:56;;;;;;;19.63;9.52;;;-2.70;99.90;;;;;;5053091;28;20527;-69
2021/01/13 08:30:29;;;;;;;21.50;10.25;;;-2.60;99.90;;;;;;5059423;28;20192;-68
2021/01/13 08:32:56;;;;;;;3.05;2.10;;;-2.60;99.90;;;;;;5060570;28;20690;-67
2021/01/13 08:35:33;;;;;;;11.38;6.50;;;-2.50;99.90;;;;;;5055166;28;20212;-68
2021/01/13 08:38:10;;;;;;;9.23;5.15;;;-2.50;99.90;;;;;;5051626;28;20196;-66
2021/01/13 08:40:40;;;;;;;3.50;2.38;;;-2.50;99.90;;;;;;5059727;28;20205;-68
2021/01/13 08:43:07;;;;;;;6.05;3.72;;;-2.40;99.90;;;;;;5053171;28;20307;-67
2021/01/13 08:45:34;;;;;;;6.68;3.28;;;-2.40;99.90;;;;;;5053568;28;20675;-66
2021/01/13 08:48:09;;;;;;;3.90;2.72;;;-2.40;99.90;;;;;;5058335;28;20184;-70
2021/01/13 08:50:35;;;;;;;8.05;4.85;;;-2.30;99.90;;;;;;5049866;28;20522;-67
2021/01/13 08:53:05;;;;;;;5.32;2.47;;;-2.30;99.90;;;;;;5073335;28;20628;-67
2021/01/13 08:55:32;;;;;;;5.38;3.55;;;-2.30;99.90;;;;;;5069467;28;20209;-68
2021/01/13 08:58:08;;;;;;;6.53;4.60;;;-2.30;99.90;;;;;;5060841;28;20206;-66
2021/01/13 09:00:37;;;;;;;7.35;4.82;;;-2.20;99.90;;;;;;5066247;28;20196;-67
2021/01/13 09:03:10;;;;;;;5.85;5.15;;;-2.30;99.90;;;;;;5064638;28;20231;-67
2021/01/13 09:05:38;;;;;;;5.72;4.65;;;-2.20;99.90;;;;;;5057754;28;20197;-67
2021/01/13 09:08:08;;;;;;;5.07;2.97;;;-2.20;99.90;;;;;;5044883;28;20674;-69
2021/01/13 09:10:47;;;;;;;7.15;2.40;;;-2.20;99.90;;;;;;5051754;28;20193;-67
2021/01/13 09:13:32;;;;;;;6.78;3.80;;;-2.10;99.90;;;;;;5059318;28;20246;-67
2021/01/13 09:16:26;;;;;;;6.43;2.30;;;-2.10;99.90;;;;;;5060614;28;20195;-66
2021/01/13 09:19:03;;;;;;;4.40;1.55;;;-2.00;99.90;;;;;;5061829;28;20252;-67
2021/01/13 09:21:30;;;;;;;1.58;1.45;;;-1.90;99.90;;;;;;5060249;28;20976;-66
2021/01/13 09:23:58;;;;;;;5.68;2.40;;;-1.80;99.90;;;;;;5061487;28;20193;-68
2021/01/13 09:26:32;;;;;;;2.45;1.77;;;-1.80;99.90;;;;;;5059157;28;20660;-67
2021/01/13 09:29:00;;;;;;;2.20;2.00;;;-1.80;99.90;;;;;;5061658;28;20211;-67
2021/01/13 09:31:26;;;;;;;2.72;1.77;;;-1.80;99.90;;;;;;5056169;28;20212;-69
2021/01/13 09:33:52;;;;;;;2.42;1.52;;;-1.90;99.90;;;;;;5060912;28;20197;-66
2021/01/13 09:36:19;;;;;;;1.55;1.45;;;-1.90;99.90;;;;;;5057091;28;20613;-68
2021/01/13 09:38:47;;;;;;;1.48;1.33;;;-1.90;99.90;;;;;;5058930;28;20197;-70
2021/01/13 09:41:25;;;;;;;39.78;19.40;;;-1.80;99.90;;;;;;5059262;28;20232;-67
2021/01/13 09:44:09;;;;;;;14.05;7.65;;;-1.80;99.90;;;;;;5056974;28;20675;-67
2021/01/13 09:46:35;;;;;;;14.90;7.68;;;-1.80;99.90;;;;;;5072171;28;20197;-68
2021/01/13 09:49:14;;;;;;;5.90;3.15;;;-1.80;99.90;;;;;;5063126;28;20287;-67
2021/01/13 09:51:40;;;;;;;12.25;6.47;;;-1.80;99.90;;;;;;5060346;28;20287;-66
2021/01/13 09:54:08;;;;;;;5.95;3.13;;;-1.80;99.90;;;;;;5060888;28;20275;-67
2021/01/13 09:56:36;;;;;;;2.88;1.73;;;-1.80;99.90;;;;;;5062469;28;20193;-67
2021/01/13 09:59:04;;;;;;;3.75;1.80;;;-1.80;99.90;;;;;;5060160;28;20678;-67
2021/01/13 10:01:32;;;;;;;2.10;1.90;;;-1.80;99.90;;;;;;5058751;28;20193;-68
2021/01/13 10:04:01;;;;;;;6.47;3.33;;;-1.80;99.90;;;;;;5061673;28;20288;-67
2021/01/13 10:06:31;;;;;;;3.55;1.90;;;-1.80;99.90;;;;;;5056938;28;20197;-69
2021/01/13 10:08:59;;;;;;;5.47;3.10;;;-1.70;99.90;;;;;;5060634;28;20193;-66
2021/01/13 10:11:27;;;;;;;6.05;3.58;;;-1.80;99.90;;;;;;5078694;28;20211;-67
2021/01/13 10:13:59;;;;;;;2.28;1.48;;;-1.70;99.90;;;;;;5062292;28;20194;-67
2021/01/13 10:16:25;;;;;;;1.98;1.20;;;-1.70;99.90;;;;;;5059754;28;20898;-67
2021/01/13 10:18:53;;;;;;;2.65;1.48;;;-1.70;99.90;;;;;;5065305;28;20670;-66
2021/01/13 10:21:19;;;;;;;37.83;16.30;;;-1.60;99.90;;;;;;5059643;28;20258;-70
2021/01/13 10:23:48;;;;;;;5.88;3.60;;;-1.60;99.90;;;;;;5058979;28;20197;-66
2021/01/13 10:26:14;;;;;;;2.75;2.35;;;-1.50;99.90;;;;;;5058604;28;20282;-71
2021/01/13 10:28:47;;;;;;;4.03;2.88;;;-1.50;99.90;;;;;;5057652;28;20197;-67
2021/01/13 10:31:23;;;;;;;13.50;7.97;;;-1.50;99.90;;;;;;5060194;28;20202;-69
2021/01/13 10:33:50;;;;;;;7.28;2.78;;;-1.40;99.90;;;;;;5055327;28;20951;-66
2021/01/13 10:36:32;;;;;;;10.05;7.00;;;-1.40;99.90;;;;;;5056859;28;20220;-66
2021/01/13 10:39:12;;;;;;;5.20;3.50;;;-1.40;99.90;;;;;;5057160;28;20957;-66
2021/01/13 10:41:49;;;;;;;2.03;1.60;;;-1.40;99.90;;;;;;5060650;28;20244;-66
2021/01/13 10:44:25;;;;;;;10.55;5.47;;;-1.50;99.90;;;;;;5059435;28;20192;-67
2021/01/13 10:47:00;;;;;;;8.40;6.82;;;-1.60;99.90;;;;;;5060288;28;20215;-70
2021/01/13 10:49:30;;;;;;;2.92;2.42;;;-1.70;99.90;;;;;;5055839;28;20508;-69
2021/01/13 10:52:15;;;;;;;2.75;2.00;;;-1.70;99.90;;;;;;5068121;28;20231;-69
2021/01/13 10:54:43;;;;;;;3.22;1.92;;;-1.70;99.90;;;;;;5057213;28;20557;-68
2021/01/13 10:57:14;;;;;;;2.13;1.52;;;-1.70;99.90;;;;;;5055536;28;20298;-69
2021/01/13 10:59:42;;;;;;;2.63;1.50;;;-1.70;99.90;;;;;;5070621;28;20208;-66
2021/01/13 11:02:13;;;;;;;1.00;1.00;;;-1.60;99.90;;;;;;5070521;28;20328;-68
2021/01/13 11:04:43;;;;;;;5.70;2.50;;;-1.50;99.90;;;;;;5054730;28;20190;-70
2021/01/13 11:07:16;;;;;;;3.20;2.03;;;-1.40;99.90;;;;;;5067291;28;20204;-71
2021/01/13 11:09:44;;;;;;;1.65;1.23;;;-1.30;99.90;;;;;;5049005;28;20202;-67
2021/01/13 11:12:16;;;;;;;3.33;1.50;;;-1.30;99.90;;;;;;5052344;28;20188;-70
2021/01/13 11:14:46;;;;;;;1.45;1.20;;;-1.30;99.90;;;;;;5057121;28;20201;-66
2021/01/13 11:17:26;;;;;;;2.38;1.30;;;-1.30;99.90;;;;;;5057860;28;20672;-68
2021/01/13 11:19:51;;;;;;;1.35;1.15;;;-1.20;99.90;;;;;;5050140;28;20346;-69
2021/01/13 11:22:18;;;;;;;1.80;1.40;;;-1.20;99.90;;;;;;5056311;28;20415;-66
2021/01/13 11:24:51;;;;;;;1.20;1.10;;;-1.20;99.90;;;;;;5058578;28;20193;-67
2021/01/13 11:27:22;;;;;;;1.27;1.17;;;-1.20;99.90;;;;;;5071290;28;20260;-67
2021/01/13 11:29:54;;;;;;;2.60;1.20;;;-1.30;99.90;;;;;;5050480;28;20189;-68
2021/01/13 11:32:24;;;;;;;1.10;0.90;;;-1.40;99.90;;;;;;5066345;28;20197;-68
2021/01/13 11:34:55;;;;;;;1.20;1.10;;;-1.50;99.90;;;;;;5054971;28;21078;-67
2021/01/13 11:37:22;;;;;;;1.35;1.10;;;-1.60;99.90;;;;;;5054577;28;20201;-68
2021/01/13 11:40:03;;;;;;;1.88;1.45;;;-1.60;99.90;;;;;;5051667;28;21008;-67
2021/01/13 11:42:47;;;;;;;1.40;1.30;;;-1.60;99.90;;;;;;5051615;28;20247;-68
2021/01/13 11:45:28;;;;;;;1.40;1.30;;;-1.60;99.90;;;;;;5052102;28;20219;-68
2021/01/13 11:47:57;;;;;;;2.35;1.35;;;-1.70;99.90;;;;;;5053410;28;20227;-67
2021/01/13 11:50:24;;;;;;;1.40;1.30;;;-1.60;99.90;;;;;;5053275;28;20275;-67
2021/01/13 11:52:58;;;;;;;1.73;1.33;;;-1.70;99.90;;;;;;5056591;28;20201;-68
2021/01/13 11:55:28;;;;;;;2.67;1.40;;;-1.60;99.90;;;;;;5054803;28;20193;-66
2021/01/13 11:57:55;;;;;;;1.42;1.30;;;-1.60;99.90;;;;;;5059048;28;20970;-67
2021/01/13 12:00:23;;;;;;;4.90;1.30;;;-1.60;99.90;;;;;;5059772;28;20544;-66
2021/01/13 12:02:53;;;;;;;2.70;1.50;;;-1.60;99.90;;;;;;5055716;28;20197;-68
2021/01/13 12:05:29;;;;;;;1.80;1.45;;;-1.70;99.90;;;;;;5057994;28;20201;-69
2021/01/13 12:08:15;;;;;;;2.63;1.60;;;-1.70;99.90;;;;;;5057159;28;20189;-67
2021/01/13 12:10:45;;;;;;;1.63;1.42;;;-1.70;99.90;;;;;;5051826;28;20197;-68
2021/01/13 12:13:18;;;;;;;2.00;1.60;;;-1.70;99.90;;;;;;5049627;28;20198;-69
2021/01/13 12:16:04;;;;;;;1.98;1.60;;;-1.70;99.90;;;;;;5053270;28;20197;-67
2021/01/13 12:18:36;;;;;;;2.05;1.70;;;-1.70;99.90;;;;;;5053586;28;20291;-65
2021/01/13 12:21:28;;;;;;;4.00;2.10;;;-1.70;99.90;;;;;;5043167;28;20201;-67
2021/01/13 12:23:54;;;;;;;2.58;1.80;;;-1.70;99.90;;;;;;5056572;28;20192;-68
2021/01/13 12:26:31;;;;;;;4.22;1.80;;;-1.70;99.90;;;;;;5057496;28;20247;-66
2021/01/13 12:29:09;;;;;;;4.60;1.75;;;-1.70;99.90;;;;;;5054677;28;20280;-71
2021/01/13 12:31:47;;;;;;;2.13;1.65;;;-1.70;99.90;;;;;;5055416;28;20193;-71
2021/01/13 12:34:17;;;;;;;2.05;1.70;;;-1.60;99.90;;;;;;5051973;28;20203;-68
2021/01/13 12:36:45;;;;;;;2.40;1.90;;;-1.60;99.90;;;;;;5057528;28;20638;-68
2021/01/13 12:39:25;;;;;;;2.20;1.63;;;-1.60;99.90;;;;;;5055837;28;20204;-68
2021/01/13 12:41:52;;;;;;;2.00;1.50;;;-1.60;99.90;;;;;;5071448;28;21180;-67
2021/01/13 12:44:25;;;;;;;2.05;1.70;;;-1.70;99.90;;;;;;5051247;28;20578;-68
2021/01/13 12:47:03;;;;;;;2.67;1.60;;;-1.70;99.90;;;;;;5057798;28;20208;-65
2021/01/13 12:49:29;;;;;;;2.00;1.50;;;-1.70;99.90;;;;;;5057304;28;20220;-70
2021/01/13 12:51:56;;;;;;;4.13;1.75;;;-1.70;99.90;;;;;;5050022;28;20194;-65
2021/01/13 12:54:23;;;;;;;3.00;1.40;;;-1.80;99.90;;;;;;5066862;28;20322;-66
2021/01/13 12:56:49;;;;;;;4.78;2.75;;;-1.80;99.90;;;;;;5054014;28;20217;-66
2021/01/13 12:59:16;;;;;;;4.32;1.52;;;-1.80;99.90;;;;;;5056670;28;20205;-68
2021/01/13 13:01:43;;;;;;;2.75;2.03;;;-1.70;99.90;;;;;;5059807;28;20261;-66
2021/01/13 13:04:10;;;;;;;2.90;1.95;;;-1.70;99.90;;;;;;5055623;28;20219;-67
2021/01/13 13:06:37;;;;;;;2.45;1.90;;;-1.80;99.90;;;;;;5060471;28;21135;-66
2021/01/13 13:09:05;;;;;;;4.47;1.88;;;-1.80;99.90;;;;;;5058186;28;20181;-66
2021/01/13 13:11:31;;;;;;;4.50;1.77;;;-1.80;99.90;;;;;;5053446;28;20671;-67